x

Cape Edgecumbe - 25nm Ssw Of Cape Edgecumbe, Ak (46084) Wave Buoy

12:50am - Sat 27th Aug 2016 All times are AKDT. -8 hours from GMT.

  • Sig Wave height 7.9ft
  • Swell Direction
  • Peak Period 8s
  • Average Period 6s
  • Wind
    18mph, 22mph gusts
  • Sea Temp 57°f
  • Air Temp 58°f
  • Sea Pressure 1012.9mb
  • Cape Edgecumbe - 25nm Ssw Of Cape Edgecumbe, Ak
  • Cape Edgecumbe - 25nm Ssw Of Cape Edgecumbe, Ak

More Historic Weather Station data

Upgrade to MSW Pro to gain access to the past 30 days of data for over 8000 Wavebouys and Weather Stations around the globe.

Join Pro

Comparision Forecast

View Surf forecast
   
Sat 08/27 12:50am 8ft 8s 6s 18 22 mph 1012.9mb 57f 58f
Fri 08/26 11:50pm 8.5ft 8s 6s 13 16 mph 1013.3mb 56f 58f
10:50pm 7.5ft 8s 6s 13 18 mph 1013.7mb 56f 58f
9:50pm 7.5ft 8s 6s 16 18 mph 1013.7mb 56f 58f
8:50pm 8ft 8s 6s 11 13 mph 1014.2mb 56f 58f
7:50pm 8ft 8s 6s 18 22 mph 1013.6mb 56f 58f
6:50pm 8ft 8s 6s 16 20 mph 1013.9mb 56f 58f
5:50pm 7.5ft 8s 6s 18 20 mph 1014.3mb 57f 58f
4:50pm 7.5ft 8s 6s 20 25 mph 1014.3mb 57f 58f
3:50pm 8ft 8s 6s 22 25 mph 1014.7mb 57f 59f
2:50pm 8ft 8s 6s 18 22 mph 1015.1mb 57f 59f
1:50pm 8.5ft 7s 6s 22 27 mph 1015.1mb 56f 59f
12:50pm 8ft 7s 6s 22 29 mph 1014.9mb 56f 59f
11:50am 8ft 8s 6s 22 27 mph 1015.3mb 56f 59f
10:50am 7.5ft 8s 6s 25 29 mph 1015.4mb 56f 59f
9:50am 7ft 7s 6s 20 25 mph 1015.4mb 57f 59f
8:50am 7ft 7s 6s 22 27 mph 1015.8mb 57f 60f
7:50am 7ft 7s 6s 20 27 mph 1016.2mb 57f 59f
6:50am 6.5ft 6s 5s 20 25 mph 1016.4mb 57f 59f
5:50am 5.5ft 6s 5s 20 25 mph 1016.6mb 57f 59f
4:50am 5ft 6s 5s 20 25 mph 1017.8mb 57f 59f
3:50am 4.5ft 8s 5s 20 22 mph 1018.7mb 57f 59f
2:50am 4.5ft 6s 5s 18 20 mph 1019.8mb 57f 59f
1:50am 4ft 7s 5s 16 18 mph 1021.1mb 57f 59f
12:50am 4.5ft 8s 5s 13 18 mph 1022.3mb 57f 58f
Thu 08/25 11:50pm 4.5ft 8s 6s 11 13 mph 1023.2mb 57f 59f
10:50pm 4.5ft 8s 5s 13 16 mph 1024mb 57f 59f
9:50pm 5ft 8s 6s 11
mph
1024.7mb 57f 59f
8:50pm 4.5ft 8s 6s 11 13 mph 1025.7mb 57f 59f
7:50pm 4.5ft 8s 6s 13 16 mph 1026.5mb 57f 59f
6:50pm 4.5ft 8s 5s 11 16 mph 1026.9mb 57f 59f
5:50pm 4.5ft 8s 6s 11 13 mph 1028mb 58f 59f
4:50pm 4ft 8s 5s 11 13 mph 1028.7mb 58f 58f
3:50pm 4ft 8s 6s 13 16 mph 1029.5mb 58f 59f
2:50pm 4ft 8s 6s 16 18 mph 1030mb 58f 59f
1:50pm 4ft 8s 6s 13 16 mph 1030.3mb 59f 58f
12:50pm 3.5ft 8s 6s 11 13 mph 1030.9mb 59f 58f
11:50am 4.5ft 8s 6s 13 16 mph 1031.4mb 59f 58f
10:50am 4ft 8s 6s 13 16 mph 1031.6mb 59f 58f
9:50am 4.5ft 8s 6s 11
mph
1031.7mb 59f 59f
8:50am 4.5ft 7s 6s 11 13 mph 1032.1mb 59f 59f
7:50am 4.5ft 8s 6s 11 13 mph 1032.5mb 59f 59f
6:50am 4.5ft 8s 6s 11 16 mph 1032.9mb 59f 59f
5:50am 4.5ft 8s 6s 11 13 mph 1032.9mb 59f 59f
4:50am 4.5ft 7s 6s 9 11 mph 1033.2mb 59f 58f
3:50am 4.5ft 8s 7s 9 11 mph 1033.5mb 59f 58f
2:50am 4.5ft 8s 6s 9 11 mph 1033.7mb 59f 58f
1:50am 4.5ft 8s 7s 11 13 mph 1034.1mb 59f 57f
12:50am 4.5ft 8s 6s 11 16 mph 1034.2mb 59f 57f
Wed 08/24 11:50pm 4.5ft 8s 6s 11 13 mph 1034.7mb 59f 57f
10:50pm 4.5ft 8s 6s 9 11 mph 1034.8mb 59f 57f
9:50pm 4.5ft 8s 6s 9 11 mph 1034.9mb 59f 57f
8:50pm 4.5ft 9s 6s 11 13 mph 1034.9mb 59f 57f
6:50pm 4.5ft 8s 7s 9 11 mph 1034.8mb 58f 57f
5:50pm 4.5ft 8s 6s 9
mph
1035.2mb 58f 57f
4:50pm 5.5ft 8s 7s 9 11 mph 1035.4mb 58f 58f
3:50pm 5.5ft 8s 7s 9 11 mph 1035.7mb 58f 58f
2:50pm 5ft 8s 7s 9 11 mph 1036mb 58f 58f
1:50pm 6ft 8s 7s 7 9 mph 1036mb 58f 58f
12:50pm 5.5ft 8s 7s 7 9 mph 1036mb 58f 59f
11:50am 5.5ft 8s 7s 7 9 mph 1035.9mb 58f 58f
10:50am 5ft 9s 7s 7
mph
1035.8mb 58f 58f
9:50am 6ft 9s 7s 4 7 mph 1035.3mb 58f 58f
8:50am 5.5ft 8s  -  4
mph
1035.1mb 57f 58f
7:50am 5ft 8s 7s 2 4 mph 1034.7mb 57f 58f
6:50am 5ft 9s 7s 2 4 mph 1034.3mb 58f 58f
5:50am 6ft 9s 7s 4 7 mph 1033.9mb 58f 58f
4:50am 6ft 8s 7s 4
mph
1033.5mb 58f 58f
3:50am 6ft 9s 7s 2
mph
1033.3mb 58f 58f
2:50am 6ft 9s 7s 7 9 mph 1033.2mb 58f 58f
1:50am 6.5ft 9s 7s 9 11 mph 1032.7mb 58f 59f
12:50am 6ft 8s 7s 9 11 mph 1032.4mb 58f 59f
Tue 08/23 11:50pm 6ft 10s 7s 7 11 mph 1032.3mb 58f 59f
10:50pm 6ft 9s 7s 7 9 mph 1031.9mb 58f 59f
9:50pm 6ft 10s 7s 11 13 mph 1031.4mb 58f 59f
8:50pm 6ft 8s 6s 11 13 mph 1030.9mb 58f 59f
7:50pm 5ft 9s 7s 11 16 mph 1030.1mb 58f 60f
6:50pm 5.5ft 10s 7s 9
mph
1029.6mb 58f 59f
5:50pm 5ft 9s 7s 9 11 mph 1029.2mb 58f 59f
4:50pm 5ft 10s 7s 11 13 mph 1028.9mb 59f 60f
3:50pm 5.5ft 9s 7s 11 13 mph 1028.5mb 59f 59f
2:50pm 5.5ft 10s 7s 9 11 mph 1028.3mb 59f 59f
1:50pm 6ft 11s 7s 9
mph
1028mb 59f 59f
12:50pm 5ft 7s 7s 7 9 mph 1027.8mb 59f 59f
11:50am 5ft 6s 7s 9 11 mph 1027.4mb 59f 60f
10:50am 5.5ft 7s 6s 9
mph
1026.6mb 59f 60f